<?xml version="1.0" encoding="UTF-8" standalone="no" ?>
<gpx xmlns="http://www.topografix.com/GPX/1/1" xmlns:xsi="http://www.w3.org/2001/XMLSchema-instance" xsi:schemaLocation="http://www.topografix.com/GPX/1/1 http://www.topografix.com/GPX/1/1/gpx.xsd" version="1.1" creator="VisuGPX - https://www.visugpx.com">
  <metadata>
    <name>Casti 60 km</name>
  </metadata>
  <trk>
    <name><![CDATA[Casti 60 km]]></name>
    <extensions>
      <line xmlns="http://www.topografix.com/GPX/gpx_style/0/2">
        <color>0000FF</color>
        <width>4</width>
      </line>
    </extensions>
    <trkseg>
      <trkpt lat="44.60528" lon="0.80279">
        <ele>170</ele>
        <time>2022-09-24T17:38:44.000Z</time>
      </trkpt>
      <trkpt lat="44.60566" lon="0.80166">
        <ele>170.1</ele>
        <time>2022-09-24T17:39:01.963Z</time>
      </trkpt>
      <trkpt lat="44.60606" lon="0.80157">
        <ele>171.5</ele>
        <time>2022-09-24T17:39:13.370Z</time>
      </trkpt>
      <trkpt lat="44.60635" lon="0.79997">
        <ele>174.8</ele>
        <time>2022-09-24T17:39:40.872Z</time>
      </trkpt>
      <trkpt lat="44.6067" lon="0.79985">
        <ele>173.4</ele>
        <time>2022-09-24T17:39:47.293Z</time>
      </trkpt>
      <trkpt lat="44.60669" lon="0.79938">
        <ele>174.9</ele>
        <time>2022-09-24T17:39:57.416Z</time>
      </trkpt>
      <trkpt lat="44.60502" lon="0.79816">
        <ele>152.2</ele>
        <time>2022-09-24T17:40:15.254Z</time>
      </trkpt>
      <trkpt lat="44.60521" lon="0.79774">
        <ele>153.2</ele>
        <time>2022-09-24T17:40:23.620Z</time>
      </trkpt>
      <trkpt lat="44.60471" lon="0.79729">
        <ele>144.2</ele>
        <time>2022-09-24T17:40:29.114Z</time>
      </trkpt>
      <trkpt lat="44.60422" lon="0.79728">
        <ele>135.8</ele>
        <time>2022-09-24T17:40:33.450Z</time>
      </trkpt>
      <trkpt lat="44.60206" lon="0.79502">
        <ele>148.9</ele>
        <time>2022-09-24T17:42:08.009Z</time>
      </trkpt>
      <trkpt lat="44.60159" lon="0.79487">
        <ele>144.2</ele>
        <time>2022-09-24T17:42:12.214Z</time>
      </trkpt>
      <trkpt lat="44.60152" lon="0.79415">
        <ele>132.9</ele>
        <time>2022-09-24T17:42:16.885Z</time>
      </trkpt>
      <trkpt lat="44.6011" lon="0.79377">
        <ele>128.7</ele>
        <time>2022-09-24T17:42:21.367Z</time>
      </trkpt>
      <trkpt lat="44.59983" lon="0.79442">
        <ele>122</ele>
        <time>2022-09-24T17:42:34.883Z</time>
      </trkpt>
      <trkpt lat="44.59928" lon="0.79422">
        <ele>117.5</ele>
        <time>2022-09-24T17:42:39.922Z</time>
      </trkpt>
      <trkpt lat="44.59717" lon="0.79008">
        <ele>122.8</ele>
        <time>2022-09-24T17:44:02.139Z</time>
      </trkpt>
      <trkpt lat="44.59591" lon="0.79039">
        <ele>131.2</ele>
        <time>2022-09-24T17:44:45.890Z</time>
      </trkpt>
      <trkpt lat="44.59519" lon="0.78984">
        <ele>137.9</ele>
        <time>2022-09-24T17:45:18.031Z</time>
      </trkpt>
      <trkpt lat="44.59385" lon="0.79017">
        <ele>151.1</ele>
        <time>2022-09-24T17:46:20.926Z</time>
      </trkpt>
      <trkpt lat="44.59136" lon="0.7893">
        <ele>160.4</ele>
        <time>2022-09-24T17:47:29.291Z</time>
      </trkpt>
      <trkpt lat="44.59223" lon="0.7883">
        <ele>158.9</ele>
        <time>2022-09-24T17:47:45.693Z</time>
      </trkpt>
      <trkpt lat="44.59305" lon="0.78556">
        <ele>156</ele>
        <time>2022-09-24T17:48:15.624Z</time>
      </trkpt>
      <trkpt lat="44.5963" lon="0.78033">
        <ele>163</ele>
        <time>2022-09-24T17:49:59.097Z</time>
      </trkpt>
      <trkpt lat="44.59813" lon="0.77664">
        <ele>183.6</ele>
        <time>2022-09-24T17:51:47.310Z</time>
      </trkpt>
      <trkpt lat="44.5991" lon="0.77101">
        <ele>185.2</ele>
        <time>2022-09-24T17:53:10.934Z</time>
      </trkpt>
      <trkpt lat="44.59988" lon="0.77037">
        <ele>180.6</ele>
        <time>2022-09-24T17:53:19.237Z</time>
      </trkpt>
      <trkpt lat="44.5999" lon="0.76876">
        <ele>172.7</ele>
        <time>2022-09-24T17:53:50.493Z</time>
      </trkpt>
      <trkpt lat="44.6028" lon="0.76912">
        <ele>165.8</ele>
        <time>2022-09-24T17:54:28.828Z</time>
      </trkpt>
      <trkpt lat="44.60391" lon="0.76849">
        <ele>160.6</ele>
        <time>2022-09-24T17:54:43.088Z</time>
      </trkpt>
      <trkpt lat="44.60495" lon="0.767">
        <ele>156</ele>
        <time>2022-09-24T17:55:03.191Z</time>
      </trkpt>
      <trkpt lat="44.60136" lon="0.76422">
        <ele>152.9</ele>
        <time>2022-09-24T17:56:17.679Z</time>
      </trkpt>
      <trkpt lat="44.60043" lon="0.76322">
        <ele>147</ele>
        <time>2022-09-24T17:56:34.901Z</time>
      </trkpt>
      <trkpt lat="44.5985" lon="0.76217">
        <ele>146.2</ele>
        <time>2022-09-24T17:57:13.637Z</time>
      </trkpt>
      <trkpt lat="44.59909" lon="0.75794">
        <ele>136.4</ele>
        <time>2022-09-24T17:58:00.060Z</time>
      </trkpt>
      <trkpt lat="44.60005" lon="0.7582">
        <ele>137.7</ele>
        <time>2022-09-24T17:58:27.210Z</time>
      </trkpt>
      <trkpt lat="44.60263" lon="0.75409">
        <ele>161</ele>
        <time>2022-09-24T18:00:46.298Z</time>
      </trkpt>
      <trkpt lat="44.60333" lon="0.75419">
        <ele>160.9</ele>
        <time>2022-09-24T18:00:55.093Z</time>
      </trkpt>
      <trkpt lat="44.60438" lon="0.75502">
        <ele>158</ele>
        <time>2022-09-24T18:01:12.117Z</time>
      </trkpt>
      <trkpt lat="44.60824" lon="0.75489">
        <ele>167.9</ele>
        <time>2022-09-24T18:02:48.323Z</time>
      </trkpt>
      <trkpt lat="44.61076" lon="0.75363">
        <ele>164.1</ele>
        <time>2022-09-24T18:03:30.316Z</time>
      </trkpt>
      <trkpt lat="44.61267" lon="0.75331">
        <ele>152.4</ele>
        <time>2022-09-24T18:03:53.686Z</time>
      </trkpt>
      <trkpt lat="44.61433" lon="0.75427">
        <ele>138.9</ele>
        <time>2022-09-24T18:04:15.759Z</time>
      </trkpt>
      <trkpt lat="44.61993" lon="0.75439">
        <ele>111</ele>
        <time>2022-09-24T18:05:28.365Z</time>
      </trkpt>
      <trkpt lat="44.61945" lon="0.75281">
        <ele>109</ele>
        <time>2022-09-24T18:05:48.582Z</time>
      </trkpt>
      <trkpt lat="44.61951" lon="0.75038">
        <ele>96</ele>
        <time>2022-09-24T18:06:10.270Z</time>
      </trkpt>
      <trkpt lat="44.61807" lon="0.74693">
        <ele>111.9</ele>
        <time>2022-09-24T18:07:51.351Z</time>
      </trkpt>
      <trkpt lat="44.61687" lon="0.74542">
        <ele>116.4</ele>
        <time>2022-09-24T18:08:17.145Z</time>
      </trkpt>
      <trkpt lat="44.61894" lon="0.74338">
        <ele>110.2</ele>
        <time>2022-09-24T18:08:51.932Z</time>
      </trkpt>
      <trkpt lat="44.61715" lon="0.74072">
        <ele>101.9</ele>
        <time>2022-09-24T18:09:28.554Z</time>
      </trkpt>
      <trkpt lat="44.61562" lon="0.73911">
        <ele>100.5</ele>
        <time>2022-09-24T18:09:57.596Z</time>
      </trkpt>
      <trkpt lat="44.61611" lon="0.73785">
        <ele>98.3</ele>
        <time>2022-09-24T18:10:11.264Z</time>
      </trkpt>
      <trkpt lat="44.61728" lon="0.7373">
        <ele>96</ele>
        <time>2022-09-24T18:10:29.807Z</time>
      </trkpt>
      <trkpt lat="44.62166" lon="0.73223">
        <ele>86</ele>
        <time>2022-09-24T18:11:54.627Z</time>
      </trkpt>
      <trkpt lat="44.62175" lon="0.73164">
        <ele>86</ele>
        <time>2022-09-24T18:12:02.055Z</time>
      </trkpt>
      <trkpt lat="44.62092" lon="0.73125">
        <ele>87.5</ele>
        <time>2022-09-24T18:12:20.391Z</time>
      </trkpt>
      <trkpt lat="44.6199" lon="0.72968">
        <ele>91.2</ele>
        <time>2022-09-24T18:12:57.594Z</time>
      </trkpt>
      <trkpt lat="44.61654" lon="0.72785">
        <ele>90.7</ele>
        <time>2022-09-24T18:13:57.241Z</time>
      </trkpt>
      <trkpt lat="44.61496" lon="0.72373">
        <ele>88.6</ele>
        <time>2022-09-24T18:14:59.026Z</time>
      </trkpt>
      <trkpt lat="44.61185" lon="0.71866">
        <ele>89.7</ele>
        <time>2022-09-24T18:16:21.045Z</time>
      </trkpt>
      <trkpt lat="44.61115" lon="0.71666">
        <ele>90</ele>
        <time>2022-09-24T18:16:49.504Z</time>
      </trkpt>
      <trkpt lat="44.61109" lon="0.71577">
        <ele>89.2</ele>
        <time>2022-09-24T18:17:01.311Z</time>
      </trkpt>
      <trkpt lat="44.61224" lon="0.71576">
        <ele>88.2</ele>
        <time>2022-09-24T18:17:21.856Z</time>
      </trkpt>
      <trkpt lat="44.61293" lon="0.71543">
        <ele>88.7</ele>
        <time>2022-09-24T18:17:40.657Z</time>
      </trkpt>
      <trkpt lat="44.61435" lon="0.70797">
        <ele>88.8</ele>
        <time>2022-09-24T18:19:11.411Z</time>
      </trkpt>
      <trkpt lat="44.61305" lon="0.7006">
        <ele>91</ele>
        <time>2022-09-24T18:20:51.715Z</time>
      </trkpt>
      <trkpt lat="44.61188" lon="0.69647">
        <ele>94.6</ele>
        <time>2022-09-24T18:21:53.758Z</time>
      </trkpt>
      <trkpt lat="44.61328" lon="0.69384">
        <ele>98</ele>
        <time>2022-09-24T18:22:44.192Z</time>
      </trkpt>
      <trkpt lat="44.61275" lon="0.68585">
        <ele>116.9</ele>
        <time>2022-09-24T18:25:08.937Z</time>
      </trkpt>
      <trkpt lat="44.61244" lon="0.68453">
        <ele>133.5</ele>
        <time>2022-09-24T18:26:09.717Z</time>
      </trkpt>
      <trkpt lat="44.61251" lon="0.68357">
        <ele>149.4</ele>
        <time>2022-09-24T18:26:27.487Z</time>
      </trkpt>
      <trkpt lat="44.61337" lon="0.68376">
        <ele>151.9</ele>
        <time>2022-09-24T18:26:44.189Z</time>
      </trkpt>
      <trkpt lat="44.61483" lon="0.68611">
        <ele>116</ele>
        <time>2022-09-24T18:27:07.084Z</time>
      </trkpt>
      <trkpt lat="44.61847" lon="0.69064">
        <ele>110.8</ele>
        <time>2022-09-24T18:28:50.821Z</time>
      </trkpt>
      <trkpt lat="44.62057" lon="0.69109">
        <ele>117</ele>
        <time>2022-09-24T18:29:37.692Z</time>
      </trkpt>
      <trkpt lat="44.62185" lon="0.68812">
        <ele>108.6</ele>
        <time>2022-09-24T18:30:08.094Z</time>
      </trkpt>
      <trkpt lat="44.62072" lon="0.68027">
        <ele>92</ele>
        <time>2022-09-24T18:31:38.737Z</time>
      </trkpt>
      <trkpt lat="44.6206" lon="0.67614">
        <ele>98.1</ele>
        <time>2022-09-24T18:32:50.993Z</time>
      </trkpt>
      <trkpt lat="44.62159" lon="0.67395">
        <ele>103.7</ele>
        <time>2022-09-24T18:33:31.821Z</time>
      </trkpt>
      <trkpt lat="44.62274" lon="0.67335">
        <ele>105.4</ele>
        <time>2022-09-24T18:33:52.385Z</time>
      </trkpt>
      <trkpt lat="44.62444" lon="0.67319">
        <ele>109</ele>
        <time>2022-09-24T18:34:33.010Z</time>
      </trkpt>
      <trkpt lat="44.62515" lon="0.67105">
        <ele>110.5</ele>
        <time>2022-09-24T18:35:05.528Z</time>
      </trkpt>
      <trkpt lat="44.62609" lon="0.66951">
        <ele>111.8</ele>
        <time>2022-09-24T18:35:36.114Z</time>
      </trkpt>
      <trkpt lat="44.62606" lon="0.66828">
        <ele>113.3</ele>
        <time>2022-09-24T18:35:51.048Z</time>
      </trkpt>
      <trkpt lat="44.62727" lon="0.66562">
        <ele>107.2</ele>
        <time>2022-09-24T18:36:22.451Z</time>
      </trkpt>
      <trkpt lat="44.62993" lon="0.66359">
        <ele>105.3</ele>
        <time>2022-09-24T18:37:13.656Z</time>
      </trkpt>
      <trkpt lat="44.63054" lon="0.66259">
        <ele>105.7</ele>
        <time>2022-09-24T18:37:29.128Z</time>
      </trkpt>
      <trkpt lat="44.63111" lon="0.65764">
        <ele>110</ele>
        <time>2022-09-24T18:38:39.951Z</time>
      </trkpt>
      <trkpt lat="44.63875" lon="0.6617">
        <ele>105</ele>
        <time>2022-09-24T18:40:52.814Z</time>
      </trkpt>
      <trkpt lat="44.63898" lon="0.66235">
        <ele>104.3</ele>
        <time>2022-09-24T18:41:02.409Z</time>
      </trkpt>
      <trkpt lat="44.64041" lon="0.66369">
        <ele>101.9</ele>
        <time>2022-09-24T18:41:25.109Z</time>
      </trkpt>
      <trkpt lat="44.64146" lon="0.66417">
        <ele>99</ele>
        <time>2022-09-24T18:41:41.202Z</time>
      </trkpt>
      <trkpt lat="44.64249" lon="0.66556">
        <ele>96</ele>
        <time>2022-09-24T18:42:00.038Z</time>
      </trkpt>
      <trkpt lat="44.64486" lon="0.66705">
        <ele>91</ele>
        <time>2022-09-24T18:42:35.293Z</time>
      </trkpt>
      <trkpt lat="44.64628" lon="0.66762">
        <ele>89.7</ele>
        <time>2022-09-24T18:42:56.749Z</time>
      </trkpt>
      <trkpt lat="44.64705" lon="0.66826">
        <ele>89</ele>
        <time>2022-09-24T18:43:10.973Z</time>
      </trkpt>
      <trkpt lat="44.64618" lon="0.6702">
        <ele>86.4</ele>
        <time>2022-09-24T18:43:36.561Z</time>
      </trkpt>
      <trkpt lat="44.64668" lon="0.67078">
        <ele>88</ele>
        <time>2022-09-24T18:43:54.363Z</time>
      </trkpt>
      <trkpt lat="44.64906" lon="0.67173">
        <ele>77.9</ele>
        <time>2022-09-24T18:44:22.540Z</time>
      </trkpt>
      <trkpt lat="44.64994" lon="0.66973">
        <ele>75.2</ele>
        <time>2022-09-24T18:44:46.951Z</time>
      </trkpt>
      <trkpt lat="44.65125" lon="0.66761">
        <ele>74.8</ele>
        <time>2022-09-24T18:45:17.068Z</time>
      </trkpt>
      <trkpt lat="44.65189" lon="0.66782">
        <ele>73</ele>
        <time>2022-09-24T18:45:27.407Z</time>
      </trkpt>
      <trkpt lat="44.65396" lon="0.66727">
        <ele>72.8</ele>
        <time>2022-09-24T18:46:09.517Z</time>
      </trkpt>
      <trkpt lat="44.6537" lon="0.66333">
        <ele>75.7</ele>
        <time>2022-09-24T18:47:04.485Z</time>
      </trkpt>
      <trkpt lat="44.65321" lon="0.66232">
        <ele>76.2</ele>
        <time>2022-09-24T18:47:19.611Z</time>
      </trkpt>
      <trkpt lat="44.6507" lon="0.66068">
        <ele>84</ele>
        <time>2022-09-24T18:48:20.868Z</time>
      </trkpt>
      <trkpt lat="44.65077" lon="0.65951">
        <ele>77.2</ele>
        <time>2022-09-24T18:48:37.080Z</time>
      </trkpt>
      <trkpt lat="44.64976" lon="0.65588">
        <ele>89</ele>
        <time>2022-09-24T18:49:55.206Z</time>
      </trkpt>
      <trkpt lat="44.64946" lon="0.65357">
        <ele>88</ele>
        <time>2022-09-24T18:50:23.070Z</time>
      </trkpt>
      <trkpt lat="44.64884" lon="0.65141">
        <ele>89.2</ele>
        <time>2022-09-24T18:50:51.270Z</time>
      </trkpt>
      <trkpt lat="44.64874" lon="0.64996">
        <ele>87</ele>
        <time>2022-09-24T18:51:07.337Z</time>
      </trkpt>
      <trkpt lat="44.64803" lon="0.64736">
        <ele>92.1</ele>
        <time>2022-09-24T18:51:54.711Z</time>
      </trkpt>
      <trkpt lat="44.64712" lon="0.64614">
        <ele>94.9</ele>
        <time>2022-09-24T18:52:25.423Z</time>
      </trkpt>
      <trkpt lat="44.64639" lon="0.63827">
        <ele>95</ele>
        <time>2022-09-24T18:54:14.780Z</time>
      </trkpt>
      <trkpt lat="44.64649" lon="0.63486">
        <ele>95.6</ele>
        <time>2022-09-24T18:54:59.820Z</time>
      </trkpt>
      <trkpt lat="44.64607" lon="0.63255">
        <ele>91.5</ele>
        <time>2022-09-24T18:55:21.315Z</time>
      </trkpt>
      <trkpt lat="44.6458" lon="0.63246">
        <ele>88.2</ele>
        <time>2022-09-24T18:55:35.211Z</time>
      </trkpt>
      <trkpt lat="44.64465" lon="0.6336">
        <ele>96</ele>
        <time>2022-09-24T18:56:07.746Z</time>
      </trkpt>
      <trkpt lat="44.64318" lon="0.63287">
        <ele>81.5</ele>
        <time>2022-09-24T18:56:22.399Z</time>
      </trkpt>
      <trkpt lat="44.64162" lon="0.63165">
        <ele>77.2</ele>
        <time>2022-09-24T18:56:57.922Z</time>
      </trkpt>
      <trkpt lat="44.64098" lon="0.63191">
        <ele>78.5</ele>
        <time>2022-09-24T18:57:11.329Z</time>
      </trkpt>
      <trkpt lat="44.64056" lon="0.63138">
        <ele>79</ele>
        <time>2022-09-24T18:57:22.557Z</time>
      </trkpt>
      <trkpt lat="44.64466" lon="0.6218">
        <ele>88.5</ele>
        <time>2022-09-24T19:00:12.294Z</time>
      </trkpt>
      <trkpt lat="44.64428" lon="0.62032">
        <ele>91.4</ele>
        <time>2022-09-24T19:00:42.468Z</time>
      </trkpt>
      <trkpt lat="44.64297" lon="0.61728">
        <ele>96.3</ele>
        <time>2022-09-24T19:01:37.226Z</time>
      </trkpt>
      <trkpt lat="44.63979" lon="0.61494">
        <ele>104.2</ele>
        <time>2022-09-24T19:02:56.550Z</time>
      </trkpt>
      <trkpt lat="44.63659" lon="0.61484">
        <ele>109.6</ele>
        <time>2022-09-24T19:03:58.496Z</time>
      </trkpt>
      <trkpt lat="44.63594" lon="0.61444">
        <ele>105.8</ele>
        <time>2022-09-24T19:04:05.375Z</time>
      </trkpt>
      <trkpt lat="44.63514" lon="0.61497">
        <ele>101.1</ele>
        <time>2022-09-24T19:04:16.439Z</time>
      </trkpt>
      <trkpt lat="44.63351" lon="0.61525">
        <ele>102.7</ele>
        <time>2022-09-24T19:05:16.774Z</time>
      </trkpt>
      <trkpt lat="44.63175" lon="0.61596">
        <ele>108.8</ele>
        <time>2022-09-24T19:05:50.016Z</time>
      </trkpt>
      <trkpt lat="44.62932" lon="0.61582">
        <ele>102.6</ele>
        <time>2022-09-24T19:06:27.741Z</time>
      </trkpt>
      <trkpt lat="44.62899" lon="0.61741">
        <ele>98.9</ele>
        <time>2022-09-24T19:06:41.665Z</time>
      </trkpt>
      <trkpt lat="44.62713" lon="0.61947">
        <ele>87.9</ele>
        <time>2022-09-24T19:07:09.830Z</time>
      </trkpt>
      <trkpt lat="44.62572" lon="0.62032">
        <ele>82.9</ele>
        <time>2022-09-24T19:07:30.598Z</time>
      </trkpt>
      <trkpt lat="44.6242" lon="0.62818">
        <ele>90</ele>
        <time>2022-09-24T19:09:35.399Z</time>
      </trkpt>
      <trkpt lat="44.62255" lon="0.6256">
        <ele>86.2</ele>
        <time>2022-09-24T19:10:16.122Z</time>
      </trkpt>
      <trkpt lat="44.61991" lon="0.62347">
        <ele>125</ele>
        <time>2022-09-24T19:13:02.365Z</time>
      </trkpt>
      <trkpt lat="44.61868" lon="0.62658">
        <ele>133.5</ele>
        <time>2022-09-24T19:14:04.831Z</time>
      </trkpt>
      <trkpt lat="44.61673" lon="0.62928">
        <ele>141.9</ele>
        <time>2022-09-24T19:15:13.199Z</time>
      </trkpt>
      <trkpt lat="44.61417" lon="0.63564">
        <ele>146</ele>
        <time>2022-09-24T19:16:53.792Z</time>
      </trkpt>
      <trkpt lat="44.61243" lon="0.64242">
        <ele>148</ele>
        <time>2022-09-24T19:18:29.577Z</time>
      </trkpt>
      <trkpt lat="44.61191" lon="0.64312">
        <ele>147.6</ele>
        <time>2022-09-24T19:18:44.398Z</time>
      </trkpt>
      <trkpt lat="44.61118" lon="0.64344">
        <ele>149.1</ele>
        <time>2022-09-24T19:18:58.807Z</time>
      </trkpt>
      <trkpt lat="44.61026" lon="0.643">
        <ele>151.3</ele>
        <time>2022-09-24T19:19:19.984Z</time>
      </trkpt>
      <trkpt lat="44.60807" lon="0.64409">
        <ele>151.9</ele>
        <time>2022-09-24T19:19:59.839Z</time>
      </trkpt>
      <trkpt lat="44.60704" lon="0.64419">
        <ele>149.6</ele>
        <time>2022-09-24T19:20:17.498Z</time>
      </trkpt>
      <trkpt lat="44.60474" lon="0.64577">
        <ele>150.3</ele>
        <time>2022-09-24T19:21:00.078Z</time>
      </trkpt>
      <trkpt lat="44.60259" lon="0.64606">
        <ele>148.6</ele>
        <time>2022-09-24T19:21:35.401Z</time>
      </trkpt>
      <trkpt lat="44.60115" lon="0.64655">
        <ele>149.6</ele>
        <time>2022-09-24T19:22:01.972Z</time>
      </trkpt>
      <trkpt lat="44.60066" lon="0.6457">
        <ele>145.7</ele>
        <time>2022-09-24T19:22:11.501Z</time>
      </trkpt>
      <trkpt lat="44.59815" lon="0.64382">
        <ele>144.2</ele>
        <time>2022-09-24T19:23:00.875Z</time>
      </trkpt>
      <trkpt lat="44.59726" lon="0.64362">
        <ele>143.1</ele>
        <time>2022-09-24T19:23:11.772Z</time>
      </trkpt>
      <trkpt lat="44.59595" lon="0.64403">
        <ele>139.8</ele>
        <time>2022-09-24T19:23:40.439Z</time>
      </trkpt>
      <trkpt lat="44.59406" lon="0.64304">
        <ele>143.8</ele>
        <time>2022-09-24T19:24:22.077Z</time>
      </trkpt>
      <trkpt lat="44.59178" lon="0.64305">
        <ele>141.6</ele>
        <time>2022-09-24T19:25:07.805Z</time>
      </trkpt>
      <trkpt lat="44.59163" lon="0.64347">
        <ele>143.6</ele>
        <time>2022-09-24T19:25:17.613Z</time>
      </trkpt>
      <trkpt lat="44.59009" lon="0.64302">
        <ele>147.4</ele>
        <time>2022-09-24T19:26:11.511Z</time>
      </trkpt>
      <trkpt lat="44.58938" lon="0.64517">
        <ele>160.7</ele>
        <time>2022-09-24T19:26:50.725Z</time>
      </trkpt>
      <trkpt lat="44.58808" lon="0.64358">
        <ele>156.2</ele>
        <time>2022-09-24T19:27:20.420Z</time>
      </trkpt>
      <trkpt lat="44.58725" lon="0.64131">
        <ele>161.5</ele>
        <time>2022-09-24T19:28:17.988Z</time>
      </trkpt>
      <trkpt lat="44.58685" lon="0.64091">
        <ele>164.5</ele>
        <time>2022-09-24T19:28:33.164Z</time>
      </trkpt>
      <trkpt lat="44.58452" lon="0.641">
        <ele>175.2</ele>
        <time>2022-09-24T19:29:31.099Z</time>
      </trkpt>
      <trkpt lat="44.58428" lon="0.64057">
        <ele>173</ele>
        <time>2022-09-24T19:29:38.266Z</time>
      </trkpt>
      <trkpt lat="44.58316" lon="0.64271">
        <ele>174.2</ele>
        <time>2022-09-24T19:30:07.555Z</time>
      </trkpt>
      <trkpt lat="44.5816" lon="0.64449">
        <ele>166.7</ele>
        <time>2022-09-24T19:30:35.974Z</time>
      </trkpt>
      <trkpt lat="44.57984" lon="0.64566">
        <ele>169.8</ele>
        <time>2022-09-24T19:31:20.073Z</time>
      </trkpt>
      <trkpt lat="44.57773" lon="0.6483">
        <ele>162.1</ele>
        <time>2022-09-24T19:31:58.057Z</time>
      </trkpt>
      <trkpt lat="44.57581" lon="0.64999">
        <ele>149.1</ele>
        <time>2022-09-24T19:32:22.120Z</time>
      </trkpt>
      <trkpt lat="44.57494" lon="0.65114">
        <ele>142.9</ele>
        <time>2022-09-24T19:32:35.316Z</time>
      </trkpt>
      <trkpt lat="44.57399" lon="0.65163">
        <ele>139.3</ele>
        <time>2022-09-24T19:32:53.190Z</time>
      </trkpt>
      <trkpt lat="44.57287" lon="0.65174">
        <ele>137.3</ele>
        <time>2022-09-24T19:33:09.786Z</time>
      </trkpt>
      <trkpt lat="44.5719" lon="0.65119">
        <ele>134.6</ele>
        <time>2022-09-24T19:33:23.654Z</time>
      </trkpt>
      <trkpt lat="44.57127" lon="0.64936">
        <ele>116.2</ele>
        <time>2022-09-24T19:33:40.662Z</time>
      </trkpt>
      <trkpt lat="44.57062" lon="0.64945">
        <ele>109.8</ele>
        <time>2022-09-24T19:33:47.142Z</time>
      </trkpt>
      <trkpt lat="44.56863" lon="0.64883">
        <ele>112.4</ele>
        <time>2022-09-24T19:34:51.135Z</time>
      </trkpt>
      <trkpt lat="44.56708" lon="0.64898">
        <ele>125.7</ele>
        <time>2022-09-24T19:35:39.443Z</time>
      </trkpt>
      <trkpt lat="44.56608" lon="0.64846">
        <ele>122.9</ele>
        <time>2022-09-24T19:35:54.890Z</time>
      </trkpt>
      <trkpt lat="44.56468" lon="0.6517">
        <ele>104.6</ele>
        <time>2022-09-24T19:36:27.489Z</time>
      </trkpt>
      <trkpt lat="44.56369" lon="0.65248">
        <ele>101</ele>
        <time>2022-09-24T19:36:46.206Z</time>
      </trkpt>
      <trkpt lat="44.56297" lon="0.65474">
        <ele>114.1</ele>
        <time>2022-09-24T19:38:24.406Z</time>
      </trkpt>
      <trkpt lat="44.56194" lon="0.65606">
        <ele>131.2</ele>
        <time>2022-09-24T19:39:18.670Z</time>
      </trkpt>
      <trkpt lat="44.56139" lon="0.65838">
        <ele>135</ele>
        <time>2022-09-24T19:39:48.483Z</time>
      </trkpt>
      <trkpt lat="44.56032" lon="0.65987">
        <ele>138.4</ele>
        <time>2022-09-24T19:40:32.833Z</time>
      </trkpt>
      <trkpt lat="44.55976" lon="0.66342">
        <ele>152.7</ele>
        <time>2022-09-24T19:41:53.893Z</time>
      </trkpt>
      <trkpt lat="44.56019" lon="0.66541">
        <ele>146.2</ele>
        <time>2022-09-24T19:42:12.466Z</time>
      </trkpt>
      <trkpt lat="44.56003" lon="0.66578">
        <ele>145.9</ele>
        <time>2022-09-24T19:42:22.235Z</time>
      </trkpt>
      <trkpt lat="44.55894" lon="0.66638">
        <ele>148.8</ele>
        <time>2022-09-24T19:42:49.758Z</time>
      </trkpt>
      <trkpt lat="44.55637" lon="0.67485">
        <ele>137.6</ele>
        <time>2022-09-24T19:44:37.515Z</time>
      </trkpt>
      <trkpt lat="44.55694" lon="0.67598">
        <ele>128</ele>
        <time>2022-09-24T19:44:48.303Z</time>
      </trkpt>
      <trkpt lat="44.55882" lon="0.6775">
        <ele>116</ele>
        <time>2022-09-24T19:45:21.655Z</time>
      </trkpt>
      <trkpt lat="44.56024" lon="0.67905">
        <ele>125.2</ele>
        <time>2022-09-24T19:46:26.076Z</time>
      </trkpt>
      <trkpt lat="44.56076" lon="0.67892">
        <ele>126.3</ele>
        <time>2022-09-24T19:46:31.850Z</time>
      </trkpt>
      <trkpt lat="44.56141" lon="0.6799">
        <ele>119</ele>
        <time>2022-09-24T19:46:56.852Z</time>
      </trkpt>
      <trkpt lat="44.5615" lon="0.68153">
        <ele>128.3</ele>
        <time>2022-09-24T19:47:34.988Z</time>
      </trkpt>
      <trkpt lat="44.56198" lon="0.68093">
        <ele>127.6</ele>
        <time>2022-09-24T19:48:03.317Z</time>
      </trkpt>
      <trkpt lat="44.56308" lon="0.68081">
        <ele>136.9</ele>
        <time>2022-09-24T19:48:33.181Z</time>
      </trkpt>
      <trkpt lat="44.56719" lon="0.684">
        <ele>110.3</ele>
        <time>2022-09-24T19:49:46.553Z</time>
      </trkpt>
      <trkpt lat="44.56651" lon="0.68581">
        <ele>108.6</ele>
        <time>2022-09-24T19:50:12.768Z</time>
      </trkpt>
      <trkpt lat="44.56626" lon="0.68852">
        <ele>105</ele>
        <time>2022-09-24T19:50:41.361Z</time>
      </trkpt>
      <trkpt lat="44.56822" lon="0.68936">
        <ele>117.9</ele>
        <time>2022-09-24T19:52:24.116Z</time>
      </trkpt>
      <trkpt lat="44.56871" lon="0.68885">
        <ele>123.1</ele>
        <time>2022-09-24T19:52:40.497Z</time>
      </trkpt>
      <trkpt lat="44.56991" lon="0.68964">
        <ele>130.2</ele>
        <time>2022-09-24T19:53:06.624Z</time>
      </trkpt>
      <trkpt lat="44.56806" lon="0.69518">
        <ele>119.3</ele>
        <time>2022-09-24T19:54:09.641Z</time>
      </trkpt>
      <trkpt lat="44.56873" lon="0.69532">
        <ele>118.8</ele>
        <time>2022-09-24T19:54:19.334Z</time>
      </trkpt>
      <trkpt lat="44.56884" lon="0.69643">
        <ele>115.9</ele>
        <time>2022-09-24T19:54:31.160Z</time>
      </trkpt>
      <trkpt lat="44.56854" lon="0.69843">
        <ele>106.1</ele>
        <time>2022-09-24T19:54:48.619Z</time>
      </trkpt>
      <trkpt lat="44.56876" lon="0.69895">
        <ele>105.4</ele>
        <time>2022-09-24T19:54:53.701Z</time>
      </trkpt>
      <trkpt lat="44.57005" lon="0.69886">
        <ele>102.2</ele>
        <time>2022-09-24T19:55:30.869Z</time>
      </trkpt>
      <trkpt lat="44.57124" lon="0.69921">
        <ele>111.1</ele>
        <time>2022-09-24T19:56:11.876Z</time>
      </trkpt>
      <trkpt lat="44.57224" lon="0.70019">
        <ele>114.7</ele>
        <time>2022-09-24T19:56:34.157Z</time>
      </trkpt>
      <trkpt lat="44.57463" lon="0.70156">
        <ele>115</ele>
        <time>2022-09-24T19:57:19.703Z</time>
      </trkpt>
      <trkpt lat="44.57481" lon="0.70143">
        <ele>114.2</ele>
        <time>2022-09-24T19:57:22.672Z</time>
      </trkpt>
      <trkpt lat="44.57785" lon="0.70429">
        <ele>113.8</ele>
        <time>2022-09-24T19:58:39.581Z</time>
      </trkpt>
      <trkpt lat="44.57711" lon="0.70573">
        <ele>106.7</ele>
        <time>2022-09-24T19:58:55.949Z</time>
      </trkpt>
      <trkpt lat="44.57723" lon="0.70614">
        <ele>105.9</ele>
        <time>2022-09-24T19:59:05.238Z</time>
      </trkpt>
      <trkpt lat="44.57826" lon="0.70703">
        <ele>105.5</ele>
        <time>2022-09-24T19:59:25.266Z</time>
      </trkpt>
      <trkpt lat="44.57694" lon="0.70831">
        <ele>104.9</ele>
        <time>2022-09-24T19:59:57.894Z</time>
      </trkpt>
      <trkpt lat="44.579" lon="0.70831">
        <ele>104.5</ele>
        <time>2022-09-24T20:00:36.718Z</time>
      </trkpt>
      <trkpt lat="44.58106" lon="0.71244">
        <ele>114.3</ele>
        <time>2022-09-24T20:02:15.697Z</time>
      </trkpt>
      <trkpt lat="44.58019" lon="0.71285">
        <ele>119.8</ele>
        <time>2022-09-24T20:02:55.720Z</time>
      </trkpt>
      <trkpt lat="44.57949" lon="0.71431">
        <ele>128.7</ele>
        <time>2022-09-24T20:03:27.348Z</time>
      </trkpt>
      <trkpt lat="44.57871" lon="0.71763">
        <ele>131.9</ele>
        <time>2022-09-24T20:04:11.615Z</time>
      </trkpt>
      <trkpt lat="44.57827" lon="0.71794">
        <ele>130.5</ele>
        <time>2022-09-24T20:04:21.998Z</time>
      </trkpt>
      <trkpt lat="44.57763" lon="0.72285">
        <ele>141.1</ele>
        <time>2022-09-24T20:06:06.975Z</time>
      </trkpt>
      <trkpt lat="44.57817" lon="0.72333">
        <ele>145.4</ele>
        <time>2022-09-24T20:06:21.818Z</time>
      </trkpt>
      <trkpt lat="44.57798" lon="0.72446">
        <ele>148.5</ele>
        <time>2022-09-24T20:06:55.312Z</time>
      </trkpt>
      <trkpt lat="44.57829" lon="0.72508">
        <ele>154</ele>
        <time>2022-09-24T20:07:20.317Z</time>
      </trkpt>
      <trkpt lat="44.57722" lon="0.72891">
        <ele>160</ele>
        <time>2022-09-24T20:08:39.427Z</time>
      </trkpt>
      <trkpt lat="44.57818" lon="0.73505">
        <ele>163.9</ele>
        <time>2022-09-24T20:09:58.741Z</time>
      </trkpt>
      <trkpt lat="44.57894" lon="0.73786">
        <ele>163.6</ele>
        <time>2022-09-24T20:10:38.230Z</time>
      </trkpt>
      <trkpt lat="44.57885" lon="0.73898">
        <ele>162</ele>
        <time>2022-09-24T20:10:47.145Z</time>
      </trkpt>
      <trkpt lat="44.58432" lon="0.74267">
        <ele>145.1</ele>
        <time>2022-09-24T20:12:17.043Z</time>
      </trkpt>
      <trkpt lat="44.58597" lon="0.74478">
        <ele>136.4</ele>
        <time>2022-09-24T20:12:48.347Z</time>
      </trkpt>
      <trkpt lat="44.58696" lon="0.74553">
        <ele>134.7</ele>
        <time>2022-09-24T20:13:02.761Z</time>
      </trkpt>
      <trkpt lat="44.58822" lon="0.74753">
        <ele>145.7</ele>
        <time>2022-09-24T20:14:17.408Z</time>
      </trkpt>
      <trkpt lat="44.58485" lon="0.74955">
        <ele>145.8</ele>
        <time>2022-09-24T20:15:31.292Z</time>
      </trkpt>
      <trkpt lat="44.58547" lon="0.7522">
        <ele>164.2</ele>
        <time>2022-09-24T20:17:08.785Z</time>
      </trkpt>
      <trkpt lat="44.58247" lon="0.75508">
        <ele>167</ele>
        <time>2022-09-24T20:18:13.585Z</time>
      </trkpt>
      <trkpt lat="44.58332" lon="0.75719">
        <ele>150.3</ele>
        <time>2022-09-24T20:18:36.729Z</time>
      </trkpt>
      <trkpt lat="44.58228" lon="0.75921">
        <ele>157.9</ele>
        <time>2022-09-24T20:19:34.695Z</time>
      </trkpt>
      <trkpt lat="44.58333" lon="0.76157">
        <ele>157.6</ele>
        <time>2022-09-24T20:20:22.778Z</time>
      </trkpt>
      <trkpt lat="44.58571" lon="0.76189">
        <ele>155.2</ele>
        <time>2022-09-24T20:21:06.994Z</time>
      </trkpt>
      <trkpt lat="44.5873" lon="0.76335">
        <ele>150.4</ele>
        <time>2022-09-24T20:21:47.721Z</time>
      </trkpt>
      <trkpt lat="44.5884" lon="0.76352">
        <ele>158.4</ele>
        <time>2022-09-24T20:22:15.345Z</time>
      </trkpt>
      <trkpt lat="44.59164" lon="0.76517">
        <ele>163</ele>
        <time>2022-09-24T20:23:42.849Z</time>
      </trkpt>
      <trkpt lat="44.59263" lon="0.76649">
        <ele>156.9</ele>
        <time>2022-09-24T20:24:00.307Z</time>
      </trkpt>
      <trkpt lat="44.59428" lon="0.76763">
        <ele>155.8</ele>
        <time>2022-09-24T20:24:31.279Z</time>
      </trkpt>
      <trkpt lat="44.59667" lon="0.76807">
        <ele>164.1</ele>
        <time>2022-09-24T20:25:52.231Z</time>
      </trkpt>
      <trkpt lat="44.59851" lon="0.76873">
        <ele>166</ele>
        <time>2022-09-24T20:26:24.738Z</time>
      </trkpt>
      <trkpt lat="44.59966" lon="0.7687">
        <ele>171.2</ele>
        <time>2022-09-24T20:27:03.163Z</time>
      </trkpt>
      <trkpt lat="44.59988" lon="0.77037">
        <ele>180.6</ele>
        <time>2022-09-24T20:27:18.753Z</time>
      </trkpt>
      <trkpt lat="44.5991" lon="0.77101">
        <ele>185.2</ele>
        <time>2022-09-24T20:27:46.450Z</time>
      </trkpt>
      <trkpt lat="44.59832" lon="0.77584">
        <ele>186.9</ele>
        <time>2022-09-24T20:28:56.984Z</time>
      </trkpt>
      <trkpt lat="44.59717" lon="0.77895">
        <ele>172.6</ele>
        <time>2022-09-24T20:29:19.346Z</time>
      </trkpt>
      <trkpt lat="44.59305" lon="0.78556">
        <ele>156</ele>
        <time>2022-09-24T20:30:50.574Z</time>
      </trkpt>
      <trkpt lat="44.59223" lon="0.7883">
        <ele>158.9</ele>
        <time>2022-09-24T20:31:33.596Z</time>
      </trkpt>
      <trkpt lat="44.59136" lon="0.7893">
        <ele>160.4</ele>
        <time>2022-09-24T20:31:56.499Z</time>
      </trkpt>
      <trkpt lat="44.59385" lon="0.79017">
        <ele>151.1</ele>
        <time>2022-09-24T20:32:24.359Z</time>
      </trkpt>
      <trkpt lat="44.59564" lon="0.79">
        <ele>133.8</ele>
        <time>2022-09-24T20:32:40.583Z</time>
      </trkpt>
      <trkpt lat="44.59591" lon="0.79039">
        <ele>131.2</ele>
        <time>2022-09-24T20:32:43.870Z</time>
      </trkpt>
      <trkpt lat="44.59717" lon="0.79008">
        <ele>122.8</ele>
        <time>2022-09-24T20:32:56.383Z</time>
      </trkpt>
      <trkpt lat="44.59928" lon="0.79422">
        <ele>117.5</ele>
        <time>2022-09-24T20:33:57.798Z</time>
      </trkpt>
      <trkpt lat="44.59983" lon="0.79442">
        <ele>122</ele>
        <time>2022-09-24T20:34:19.296Z</time>
      </trkpt>
      <trkpt lat="44.6011" lon="0.79377">
        <ele>128.7</ele>
        <time>2022-09-24T20:35:00.217Z</time>
      </trkpt>
      <trkpt lat="44.60152" lon="0.79415">
        <ele>132.9</ele>
        <time>2022-09-24T20:35:19.905Z</time>
      </trkpt>
      <trkpt lat="44.60159" lon="0.79487">
        <ele>144.2</ele>
        <time>2022-09-24T20:35:55.748Z</time>
      </trkpt>
      <trkpt lat="44.60223" lon="0.79516">
        <ele>150.6</ele>
        <time>2022-09-24T20:36:25.004Z</time>
      </trkpt>
      <trkpt lat="44.60422" lon="0.79728">
        <ele>135.8</ele>
        <time>2022-09-24T20:37:00.271Z</time>
      </trkpt>
      <trkpt lat="44.60506" lon="0.79748">
        <ele>149.4</ele>
        <time>2022-09-24T20:37:56.154Z</time>
      </trkpt>
      <trkpt lat="44.60521" lon="0.79774">
        <ele>153.2</ele>
        <time>2022-09-24T20:38:12.804Z</time>
      </trkpt>
      <trkpt lat="44.60502" lon="0.79816">
        <ele>152.2</ele>
        <time>2022-09-24T20:38:16.824Z</time>
      </trkpt>
      <trkpt lat="44.60594" lon="0.79913">
        <ele>167.4</ele>
        <time>2022-09-24T20:39:24.979Z</time>
      </trkpt>
      <trkpt lat="44.60655" lon="0.79929">
        <ele>174.5</ele>
        <time>2022-09-24T20:39:56.976Z</time>
      </trkpt>
      <trkpt lat="44.60671" lon="0.79961">
        <ele>174.2</ele>
        <time>2022-09-24T20:40:02.742Z</time>
      </trkpt>
      <trkpt lat="44.60635" lon="0.79997">
        <ele>174.8</ele>
        <time>2022-09-24T20:40:16.129Z</time>
      </trkpt>
      <trkpt lat="44.60592" lon="0.80166">
        <ele>171.7</ele>
        <time>2022-09-24T20:40:32.733Z</time>
      </trkpt>
      <trkpt lat="44.60566" lon="0.80166">
        <ele>170.1</ele>
        <time>2022-09-24T20:40:35.449Z</time>
      </trkpt>
      <trkpt lat="44.60528" lon="0.80279">
        <ele>170</ele>
        <time>2022-09-24T20:40:50.455Z</time>
        <extensions>
          <visugpx:TrkExtension xmlns:visugpx="https://www.visugpx.com/editgpx/">
            <visugpx:node>1</visugpx:node>
            </visugpx:TrkExtension>
        </extensions>
      </trkpt>
    </trkseg>
  </trk>
</gpx>